sensor_id;sensor_type;location;lat;lon;timestamp;P1;durP1;ratioP1;P2;durP2;ratioP2
78648;SDS011;67962;47.310;9.642;2023-05-01T00:00:00;8.02;;;4.22;;
78648;SDS011;67962;47.310;9.642;2023-05-01T00:02:28;5.22;;;3.83;;
78648;SDS011;67962;47.310;9.642;2023-05-01T00:04:54;6.65;;;4.13;;
78648;SDS011;67962;47.310;9.642;2023-05-01T00:07:21;6.90;;;4.20;;
78648;SDS011;67962;47.310;9.642;2023-05-01T00:09:47;6.18;;;4.35;;
78648;SDS011;67962;47.310;9.642;2023-05-01T00:12:12;4.72;;;3.72;;
78648;SDS011;67962;47.310;9.642;2023-05-01T00:14:38;6.30;;;4.35;;
78648;SDS011;67962;47.310;9.642;2023-05-01T00:17:04;5.40;;;3.47;;
78648;SDS011;67962;47.310;9.642;2023-05-01T00:19:30;5.35;;;3.88;;
78648;SDS011;67962;47.310;9.642;2023-05-01T00:21:56;5.72;;;4.28;;
78648;SDS011;67962;47.310;9.642;2023-05-01T00:24:22;4.95;;;3.65;;
78648;SDS011;67962;47.310;9.642;2023-05-01T00:26:48;6.10;;;3.50;;
78648;SDS011;67962;47.310;9.642;2023-05-01T00:29:14;5.07;;;3.47;;
78648;SDS011;67962;47.310;9.642;2023-05-01T00:31:41;4.13;;;3.40;;
78648;SDS011;67962;47.310;9.642;2023-05-01T00:34:07;11.15;;;4.82;;
78648;SDS011;67962;47.310;9.642;2023-05-01T00:36:33;6.03;;;3.92;;
78648;SDS011;67962;47.310;9.642;2023-05-01T00:38:59;5.80;;;4.13;;
78648;SDS011;67962;47.310;9.642;2023-05-01T00:41:25;5.43;;;4.18;;
78648;SDS011;67962;47.310;9.642;2023-05-01T00:43:50;4.50;;;3.60;;
78648;SDS011;67962;47.310;9.642;2023-05-01T00:46:16;5.65;;;4.25;;
78648;SDS011;67962;47.310;9.642;2023-05-01T00:48:43;6.00;;;3.85;;
78648;SDS011;67962;47.310;9.642;2023-05-01T00:51:09;6.65;;;4.30;;
78648;SDS011;67962;47.310;9.642;2023-05-01T00:53:36;5.25;;;3.85;;
78648;SDS011;67962;47.310;9.642;2023-05-01T00:56:05;5.85;;;3.95;;
78648;SDS011;67962;47.310;9.642;2023-05-01T00:58:32;5.88;;;4.07;;
78648;SDS011;67962;47.310;9.642;2023-05-01T01:00:58;5.45;;;3.80;;
78648;SDS011;67962;47.310;9.642;2023-05-01T01:03:25;7.97;;;3.83;;
78648;SDS011;67962;47.310;9.642;2023-05-01T01:08:42;5.40;;;4.05;;
78648;SDS011;67962;47.310;9.642;2023-05-01T01:13:46;5.35;;;3.90;;
78648;SDS011;67962;47.310;9.642;2023-05-01T01:16:33;4.82;;;3.50;;
78648;SDS011;67962;47.310;9.642;2023-05-01T01:19:26;7.10;;;3.60;;
78648;SDS011;67962;47.310;9.642;2023-05-01T01:22:17;5.50;;;3.70;;
78648;SDS011;67962;47.310;9.642;2023-05-01T01:25:07;8.68;;;4.00;;
78648;SDS011;67962;47.310;9.642;2023-05-01T01:30:53;5.22;;;3.65;;
78648;SDS011;67962;47.310;9.642;2023-05-01T01:39:37;5.22;;;3.75;;
78648;SDS011;67962;47.310;9.642;2023-05-01T01:42:07;5.57;;;4.20;;
78648;SDS011;67962;47.310;9.642;2023-05-01T01:44:48;6.72;;;3.80;;
78648;SDS011;67962;47.310;9.642;2023-05-01T01:47:16;6.20;;;4.28;;
78648;SDS011;67962;47.310;9.642;2023-05-01T01:49:46;5.00;;;4.05;;
78648;SDS011;67962;47.310;9.642;2023-05-01T01:52:14;8.70;;;3.92;;
78648;SDS011;67962;47.310;9.642;2023-05-01T01:54:49;5.28;;;4.03;;
78648;SDS011;67962;47.310;9.642;2023-05-01T01:57:18;5.90;;;4.00;;
78648;SDS011;67962;47.310;9.642;2023-05-01T01:59:46;4.22;;;3.20;;
78648;SDS011;67962;47.310;9.642;2023-05-01T02:02:14;6.68;;;3.85;;
78648;SDS011;67962;47.310;9.642;2023-05-01T02:04:43;4.97;;;3.30;;
78648;SDS011;67962;47.310;9.642;2023-05-01T02:07:09;6.85;;;3.70;;
78648;SDS011;67962;47.310;9.642;2023-05-01T02:09:38;5.03;;;3.70;;
78648;SDS011;67962;47.310;9.642;2023-05-01T02:12:06;8.85;;;3.85;;
78648;SDS011;67962;47.310;9.642;2023-05-01T02:14:33;6.13;;;4.43;;
78648;SDS011;67962;47.310;9.642;2023-05-01T02:16:59;6.47;;;3.83;;
78648;SDS011;67962;47.310;9.642;2023-05-01T02:19:26;5.45;;;3.92;;
78648;SDS011;67962;47.310;9.642;2023-05-01T02:21:54;6.38;;;4.07;;
78648;SDS011;67962;47.310;9.642;2023-05-01T02:24:23;16.35;;;3.92;;
78648;SDS011;67962;47.310;9.642;2023-05-01T02:26:51;7.65;;;4.25;;
78648;SDS011;67962;47.310;9.642;2023-05-01T02:29:20;8.35;;;4.32;;
78648;SDS011;67962;47.310;9.642;2023-05-01T02:31:46;5.35;;;3.85;;
78648;SDS011;67962;47.310;9.642;2023-05-01T02:34:12;5.50;;;4.05;;
78648;SDS011;67962;47.310;9.642;2023-05-01T02:36:38;6.82;;;4.57;;
78648;SDS011;67962;47.310;9.642;2023-05-01T02:39:04;8.57;;;4.65;;
78648;SDS011;67962;47.310;9.642;2023-05-01T02:41:30;9.73;;;5.15;;
78648;SDS011;67962;47.310;9.642;2023-05-01T02:44:02;8.48;;;4.70;;
78648;SDS011;67962;47.310;9.642;2023-05-01T02:46:34;7.65;;;4.80;;
78648;SDS011;67962;47.310;9.642;2023-05-01T02:49:01;10.52;;;5.72;;
78648;SDS011;67962;47.310;9.642;2023-05-01T02:51:29;8.40;;;5.05;;
78648;SDS011;67962;47.310;9.642;2023-05-01T02:53:56;8.25;;;4.60;;
78648;SDS011;67962;47.310;9.642;2023-05-01T02:56:26;8.55;;;5.40;;
78648;SDS011;67962;47.310;9.642;2023-05-01T02:58:52;7.60;;;5.07;;
78648;SDS011;67962;47.310;9.642;2023-05-01T03:01:18;7.97;;;5.47;;
78648;SDS011;67962;47.310;9.642;2023-05-01T03:03:44;8.25;;;5.35;;
78648;SDS011;67962;47.310;9.642;2023-05-01T03:06:10;8.00;;;5.10;;
78648;SDS011;67962;47.310;9.642;2023-05-01T03:08:38;6.45;;;4.80;;
78648;SDS011;67962;47.310;9.642;2023-05-01T03:11:07;9.20;;;5.35;;
78648;SDS011;67962;47.310;9.642;2023-05-01T03:13:33;7.05;;;4.47;;
78648;SDS011;67962;47.310;9.642;2023-05-01T03:15:59;9.30;;;5.93;;
78648;SDS011;67962;47.310;9.642;2023-05-01T03:18:25;8.85;;;5.45;;
78648;SDS011;67962;47.310;9.642;2023-05-01T03:20:51;10.57;;;5.68;;
78648;SDS011;67962;47.310;9.642;2023-05-01T03:23:21;8.70;;;5.72;;
78648;SDS011;67962;47.310;9.642;2023-05-01T03:25:48;6.55;;;4.88;;
78648;SDS011;67962;47.310;9.642;2023-05-01T03:28:14;7.53;;;5.30;;
78648;SDS011;67962;47.310;9.642;2023-05-01T03:30:40;9.00;;;5.95;;
78648;SDS011;67962;47.310;9.642;2023-05-01T03:33:06;10.00;;;5.68;;
78648;SDS011;67962;47.310;9.642;2023-05-01T03:35:32;8.85;;;5.93;;
78648;SDS011;67962;47.310;9.642;2023-05-01T03:37:57;8.60;;;5.45;;
78648;SDS011;67962;47.310;9.642;2023-05-01T03:40:23;8.60;;;5.40;;
78648;SDS011;67962;47.310;9.642;2023-05-01T03:42:49;10.02;;;5.57;;
78648;SDS011;67962;47.310;9.642;2023-05-01T03:45:14;7.72;;;5.20;;
78648;SDS011;67962;47.310;9.642;2023-05-01T03:47:40;9.95;;;5.30;;
78648;SDS011;67962;47.310;9.642;2023-05-01T03:50:06;7.50;;;5.45;;
78648;SDS011;67962;47.310;9.642;2023-05-01T03:52:32;7.28;;;5.05;;
78648;SDS011;67962;47.310;9.642;2023-05-01T03:54:58;7.15;;;5.28;;
78648;SDS011;67962;47.310;9.642;2023-05-01T03:57:24;12.43;;;5.75;;
78648;SDS011;67962;47.310;9.642;2023-05-01T03:59:51;7.70;;;5.38;;
78648;SDS011;67962;47.310;9.642;2023-05-01T04:02:17;9.00;;;5.22;;
78648;SDS011;67962;47.310;9.642;2023-05-01T04:04:43;8.40;;;5.40;;
78648;SDS011;67962;47.310;9.642;2023-05-01T04:07:08;9.57;;;5.05;;
78648;SDS011;67962;47.310;9.642;2023-05-01T04:09:34;8.48;;;5.35;;
78648;SDS011;67962;47.310;9.642;2023-05-01T04:12:00;7.65;;;5.05;;
78648;SDS011;67962;47.310;9.642;2023-05-01T04:14:28;9.63;;;5.53;;
78648;SDS011;67962;47.310;9.642;2023-05-01T04:16:54;9.02;;;5.32;;
78648;SDS011;67962;47.310;9.642;2023-05-01T04:19:21;7.93;;;4.82;;
78648;SDS011;67962;47.310;9.642;2023-05-01T04:21:47;7.63;;;5.00;;
78648;SDS011;67962;47.310;9.642;2023-05-01T04:24:13;5.90;;;4.38;;
78648;SDS011;67962;47.310;9.642;2023-05-01T04:26:39;7.32;;;5.03;;
78648;SDS011;67962;47.310;9.642;2023-05-01T04:29:06;8.13;;;5.57;;
78648;SDS011;67962;47.310;9.642;2023-05-01T04:31:32;7.47;;;5.47;;
78648;SDS011;67962;47.310;9.642;2023-05-01T04:33:58;7.65;;;5.53;;
78648;SDS011;67962;47.310;9.642;2023-05-01T04:36:24;8.10;;;5.22;;
78648;SDS011;67962;47.310;9.642;2023-05-01T04:38:50;8.55;;;4.57;;
78648;SDS011;67962;47.310;9.642;2023-05-01T04:41:16;8.88;;;5.63;;
78648;SDS011;67962;47.310;9.642;2023-05-01T04:43:42;7.28;;;5.20;;
78648;SDS011;67962;47.310;9.642;2023-05-01T04:46:07;9.35;;;5.60;;
78648;SDS011;67962;47.310;9.642;2023-05-01T04:48:33;6.88;;;4.80;;
78648;SDS011;67962;47.310;9.642;2023-05-01T04:50:59;7.10;;;5.38;;
78648;SDS011;67962;47.310;9.642;2023-05-01T04:53:27;9.80;;;5.55;;
78648;SDS011;67962;47.310;9.642;2023-05-01T04:55:53;8.00;;;5.28;;
78648;SDS011;67962;47.310;9.642;2023-05-01T04:58:18;8.25;;;4.90;;
78648;SDS011;67962;47.310;9.642;2023-05-01T05:00:44;7.32;;;4.90;;
78648;SDS011;67962;47.310;9.642;2023-05-01T05:03:10;7.05;;;4.97;;
78648;SDS011;67962;47.310;9.642;2023-05-01T05:05:36;10.13;;;5.57;;
78648;SDS011;67962;47.310;9.642;2023-05-01T05:08:01;8.30;;;5.30;;
78648;SDS011;67962;47.310;9.642;2023-05-01T05:10:27;7.68;;;5.00;;
78648;SDS011;67962;47.310;9.642;2023-05-01T05:12:52;9.25;;;5.00;;
78648;SDS011;67962;47.310;9.642;2023-05-01T05:15:18;5.15;;;4.03;;
78648;SDS011;67962;47.310;9.642;2023-05-01T05:17:44;9.38;;;4.40;;
78648;SDS011;67962;47.310;9.642;2023-05-01T05:20:09;8.50;;;4.95;;
78648;SDS011;67962;47.310;9.642;2023-05-01T05:22:35;6.43;;;4.63;;
78648;SDS011;67962;47.310;9.642;2023-05-01T05:25:01;9.90;;;4.75;;
78648;SDS011;67962;47.310;9.642;2023-05-01T05:27:30;8.05;;;4.90;;
78648;SDS011;67962;47.310;9.642;2023-05-01T05:30:02;7.45;;;5.20;;
78648;SDS011;67962;47.310;9.642;2023-05-01T05:32:29;9.90;;;5.70;;
78648;SDS011;67962;47.310;9.642;2023-05-01T05:34:55;7.75;;;5.32;;
78648;SDS011;67962;47.310;9.642;2023-05-01T05:37:22;9.35;;;5.80;;
78648;SDS011;67962;47.310;9.642;2023-05-01T05:39:49;9.07;;;5.75;;
78648;SDS011;67962;47.310;9.642;2023-05-01T05:42:15;9.68;;;5.55;;
78648;SDS011;67962;47.310;9.642;2023-05-01T05:44:41;8.15;;;5.22;;
78648;SDS011;67962;47.310;9.642;2023-05-01T05:47:07;9.50;;;5.63;;
78648;SDS011;67962;47.310;9.642;2023-05-01T05:49:32;8.65;;;5.72;;
78648;SDS011;67962;47.310;9.642;2023-05-01T05:51:58;8.05;;;5.35;;
78648;SDS011;67962;47.310;9.642;2023-05-01T05:54:24;8.15;;;5.95;;
78648;SDS011;67962;47.310;9.642;2023-05-01T05:56:49;9.57;;;6.05;;
78648;SDS011;67962;47.310;9.642;2023-05-01T05:59:15;8.45;;;5.47;;
78648;SDS011;67962;47.310;9.642;2023-05-01T06:01:41;10.23;;;5.53;;
78648;SDS011;67962;47.310;9.642;2023-05-01T06:04:07;8.48;;;5.93;;
78648;SDS011;67962;47.310;9.642;2023-05-01T06:06:33;8.68;;;5.65;;
78648;SDS011;67962;47.310;9.642;2023-05-01T06:08:58;8.43;;;5.50;;
78648;SDS011;67962;47.310;9.642;2023-05-01T06:11:25;9.45;;;5.38;;
78648;SDS011;67962;47.310;9.642;2023-05-01T06:13:51;11.80;;;6.00;;
78648;SDS011;67962;47.310;9.642;2023-05-01T06:16:17;9.07;;;5.38;;
78648;SDS011;67962;47.310;9.642;2023-05-01T06:18:43;9.55;;;5.72;;
78648;SDS011;67962;47.310;9.642;2023-05-01T06:21:09;9.88;;;5.15;;
78648;SDS011;67962;47.310;9.642;2023-05-01T06:23:35;10.60;;;5.78;;
78648;SDS011;67962;47.310;9.642;2023-05-01T06:26:01;10.07;;;5.80;;
78648;SDS011;67962;47.310;9.642;2023-05-01T06:28:26;10.43;;;5.35;;
78648;SDS011;67962;47.310;9.642;2023-05-01T06:30:52;8.48;;;5.35;;
78648;SDS011;67962;47.310;9.642;2023-05-01T06:33:18;11.52;;;5.90;;
78648;SDS011;67962;47.310;9.642;2023-05-01T06:35:43;8.88;;;5.47;;
78648;SDS011;67962;47.310;9.642;2023-05-01T06:38:09;9.18;;;5.78;;
78648;SDS011;67962;47.310;9.642;2023-05-01T06:40:35;7.63;;;5.15;;
78648;SDS011;67962;47.310;9.642;2023-05-01T06:43:01;9.20;;;5.40;;
78648;SDS011;67962;47.310;9.642;2023-05-01T06:45:27;8.30;;;5.28;;
78648;SDS011;67962;47.310;9.642;2023-05-01T06:47:53;9.60;;;5.50;;
78648;SDS011;67962;47.310;9.642;2023-05-01T06:50:18;8.27;;;5.40;;
78648;SDS011;67962;47.310;9.642;2023-05-01T06:52:44;9.90;;;5.60;;
78648;SDS011;67962;47.310;9.642;2023-05-01T06:55:10;9.23;;;5.47;;
78648;SDS011;67962;47.310;9.642;2023-05-01T06:57:36;8.95;;;5.65;;
78648;SDS011;67962;47.310;9.642;2023-05-01T07:00:04;9.00;;;5.90;;
78648;SDS011;67962;47.310;9.642;2023-05-01T07:02:30;9.27;;;6.00;;
78648;SDS011;67962;47.310;9.642;2023-05-01T07:04:56;13.32;;;6.57;;
78648;SDS011;67962;47.310;9.642;2023-05-01T07:07:22;9.35;;;6.13;;
78648;SDS011;67962;47.310;9.642;2023-05-01T07:09:48;10.07;;;6.15;;
78648;SDS011;67962;47.310;9.642;2023-05-01T07:12:13;10.23;;;6.50;;
78648;SDS011;67962;47.310;9.642;2023-05-01T07:14:39;13.15;;;7.03;;
78648;SDS011;67962;47.310;9.642;2023-05-01T07:17:05;9.60;;;5.95;;
78648;SDS011;67962;47.310;9.642;2023-05-01T07:19:32;9.32;;;6.35;;
78648;SDS011;67962;47.310;9.642;2023-05-01T07:21:58;11.55;;;6.25;;
78648;SDS011;67962;47.310;9.642;2023-05-01T07:24:24;10.48;;;6.07;;
78648;SDS011;67962;47.310;9.642;2023-05-01T07:26:50;7.85;;;5.28;;
78648;SDS011;67962;47.310;9.642;2023-05-01T07:29:16;8.82;;;5.43;;
78648;SDS011;67962;47.310;9.642;2023-05-01T07:31:42;7.72;;;4.95;;
78648;SDS011;67962;47.310;9.642;2023-05-01T07:34:09;7.88;;;5.20;;
78648;SDS011;67962;47.310;9.642;2023-05-01T07:36:35;7.88;;;4.55;;
78648;SDS011;67962;47.310;9.642;2023-05-01T07:39:01;7.18;;;4.22;;
78648;SDS011;67962;47.310;9.642;2023-05-01T07:41:28;5.90;;;4.00;;
78648;SDS011;67962;47.310;9.642;2023-05-01T07:43:56;5.15;;;3.60;;
78648;SDS011;67962;47.310;9.642;2023-05-01T07:46:23;6.28;;;3.90;;
78648;SDS011;67962;47.310;9.642;2023-05-01T07:48:49;6.25;;;4.13;;
78648;SDS011;67962;47.310;9.642;2023-05-01T07:51:15;5.80;;;4.18;;
78648;SDS011;67962;47.310;9.642;2023-05-01T07:53:42;5.38;;;3.38;;
78648;SDS011;67962;47.310;9.642;2023-05-01T07:56:08;5.40;;;3.65;;
78648;SDS011;67962;47.310;9.642;2023-05-01T07:58:35;5.03;;;4.00;;
78648;SDS011;67962;47.310;9.642;2023-05-01T08:01:01;5.60;;;4.18;;
78648;SDS011;67962;47.310;9.642;2023-05-01T08:03:27;7.28;;;4.75;;
78648;SDS011;67962;47.310;9.642;2023-05-01T08:05:56;8.20;;;4.85;;
78648;SDS011;67962;47.310;9.642;2023-05-01T08:08:22;6.28;;;4.13;;
78648;SDS011;67962;47.310;9.642;2023-05-01T08:10:50;6.68;;;4.30;;
78648;SDS011;67962;47.310;9.642;2023-05-01T08:13:16;7.00;;;4.53;;
78648;SDS011;67962;47.310;9.642;2023-05-01T08:15:42;3.70;;;2.90;;
78648;SDS011;67962;47.310;9.642;2023-05-01T08:18:09;4.15;;;2.90;;
78648;SDS011;67962;47.310;9.642;2023-05-01T08:20:36;3.20;;;2.30;;
78648;SDS011;67962;47.310;9.642;2023-05-01T08:23:01;2.78;;;2.10;;
78648;SDS011;67962;47.310;9.642;2023-05-01T08:25:27;4.57;;;2.70;;
78648;SDS011;67962;47.310;9.642;2023-05-01T08:27:55;3.55;;;2.33;;
78648;SDS011;67962;47.310;9.642;2023-05-01T08:30:21;3.70;;;2.70;;
78648;SDS011;67962;47.310;9.642;2023-05-01T08:32:47;8.10;;;3.42;;
78648;SDS011;67962;47.310;9.642;2023-05-01T08:35:13;4.43;;;3.13;;
78648;SDS011;67962;47.310;9.642;2023-05-01T08:37:38;3.97;;;2.97;;
78648;SDS011;67962;47.310;9.642;2023-05-01T08:40:04;4.28;;;2.67;;
78648;SDS011;67962;47.310;9.642;2023-05-01T08:42:34;3.55;;;2.60;;
78648;SDS011;67962;47.310;9.642;2023-05-01T08:45:02;4.65;;;2.97;;
78648;SDS011;67962;47.310;9.642;2023-05-01T08:47:28;5.15;;;3.60;;
78648;SDS011;67962;47.310;9.642;2023-05-01T08:49:55;4.90;;;3.63;;
78648;SDS011;67962;47.310;9.642;2023-05-01T08:52:21;6.90;;;3.53;;
78648;SDS011;67962;47.310;9.642;2023-05-01T08:54:50;5.25;;;3.92;;
78648;SDS011;67962;47.310;9.642;2023-05-01T08:57:19;7.07;;;4.30;;
78648;SDS011;67962;47.310;9.642;2023-05-01T08:59:45;5.38;;;3.85;;
78648;SDS011;67962;47.310;9.642;2023-05-01T09:02:14;8.43;;;4.18;;
78648;SDS011;67962;47.310;9.642;2023-05-01T09:04:41;5.82;;;4.03;;
78648;SDS011;67962;47.310;9.642;2023-05-01T09:07:07;5.88;;;3.50;;
78648;SDS011;67962;47.310;9.642;2023-05-01T09:09:36;5.78;;;4.15;;
78648;SDS011;67962;47.310;9.642;2023-05-01T09:14:42;6.22;;;3.30;;
78648;SDS011;67962;47.310;9.642;2023-05-01T09:17:09;5.53;;;3.70;;
78648;SDS011;67962;47.310;9.642;2023-05-01T09:19:35;6.35;;;4.10;;
78648;SDS011;67962;47.310;9.642;2023-05-01T09:22:01;6.32;;;4.00;;
78648;SDS011;67962;47.310;9.642;2023-05-01T09:24:27;6.38;;;3.42;;
78648;SDS011;67962;47.310;9.642;2023-05-01T09:26:52;6.93;;;4.22;;
78648;SDS011;67962;47.310;9.642;2023-05-01T09:30:00;7.82;;;4.35;;
78648;SDS011;67962;47.310;9.642;2023-05-01T09:32:27;5.43;;;3.55;;
78648;SDS011;67962;47.310;9.642;2023-05-01T09:34:53;4.95;;;3.33;;
78648;SDS011;67962;47.310;9.642;2023-05-01T09:37:24;5.05;;;3.30;;
78648;SDS011;67962;47.310;9.642;2023-05-01T09:40:07;5.72;;;3.63;;
78648;SDS011;67962;47.310;9.642;2023-05-01T09:42:39;4.03;;;3.00;;
78648;SDS011;67962;47.310;9.642;2023-05-01T09:45:13;4.82;;;3.47;;
78648;SDS011;67962;47.310;9.642;2023-05-01T09:47:43;8.40;;;3.80;;
78648;SDS011;67962;47.310;9.642;2023-05-01T09:50:26;3.42;;;2.38;;
78648;SDS011;67962;47.310;9.642;2023-05-01T09:52:54;3.70;;;2.72;;
78648;SDS011;67962;47.310;9.642;2023-05-01T09:55:20;4.15;;;2.45;;
78648;SDS011;67962;47.310;9.642;2023-05-01T09:57:47;4.15;;;3.00;;
78648;SDS011;67962;47.310;9.642;2023-05-01T10:00:13;3.50;;;2.42;;
78648;SDS011;67962;47.310;9.642;2023-05-01T10:02:40;5.75;;;3.17;;
78648;SDS011;67962;47.310;9.642;2023-05-01T10:05:10;4.40;;;3.38;;
78648;SDS011;67962;47.310;9.642;2023-05-01T10:07:37;5.43;;;3.60;;
78648;SDS011;67962;47.310;9.642;2023-05-01T10:10:18;4.68;;;3.33;;
78648;SDS011;67962;47.310;9.642;2023-05-01T10:12:45;5.40;;;3.60;;
78648;SDS011;67962;47.310;9.642;2023-05-01T10:15:11;6.15;;;3.90;;
78648;SDS011;67962;47.310;9.642;2023-05-01T10:17:37;5.40;;;3.72;;
78648;SDS011;67962;47.310;9.642;2023-05-01T10:20:05;6.35;;;3.70;;
78648;SDS011;67962;47.310;9.642;2023-05-01T10:22:32;5.45;;;3.58;;
78648;SDS011;67962;47.310;9.642;2023-05-01T10:24:58;4.90;;;3.72;;
78648;SDS011;67962;47.310;9.642;2023-05-01T10:27:25;4.53;;;3.22;;
78648;SDS011;67962;47.310;9.642;2023-05-01T10:29:51;3.40;;;2.60;;
78648;SDS011;67962;47.310;9.642;2023-05-01T10:32:18;2.38;;;1.85;;
78648;SDS011;67962;47.310;9.642;2023-05-01T10:34:49;2.50;;;2.10;;
78648;SDS011;67962;47.310;9.642;2023-05-01T10:37:25;3.13;;;1.95;;
78648;SDS011;67962;47.310;9.642;2023-05-01T10:39:57;2.40;;;1.52;;
78648;SDS011;67962;47.310;9.642;2023-05-01T10:42:22;2.33;;;1.73;;
78648;SDS011;67962;47.310;9.642;2023-05-01T10:44:48;2.63;;;1.88;;
78648;SDS011;67962;47.310;9.642;2023-05-01T10:47:47;5.22;;;1.73;;
78648;SDS011;67962;47.310;9.642;2023-05-01T10:50:07;1.48;;;1.10;;
78648;SDS011;67962;47.310;9.642;2023-05-01T10:55:36;2.22;;;1.08;;
78648;SDS011;67962;47.310;9.642;2023-05-01T10:58:03;1.02;;;0.80;;
78648;SDS011;67962;47.310;9.642;2023-05-01T11:00:29;1.85;;;1.00;;
78648;SDS011;67962;47.310;9.642;2023-05-01T11:08:34;1.33;;;0.90;;
78648;SDS011;67962;47.310;9.642;2023-05-01T11:13:58;1.10;;;0.90;;
78648;SDS011;67962;47.310;9.642;2023-05-01T11:19:51;4.03;;;1.00;;
78648;SDS011;67962;47.310;9.642;2023-05-01T11:21:52;1.00;;;0.90;;
78648;SDS011;67962;47.310;9.642;2023-05-01T11:24:19;1.40;;;0.93;;
78648;SDS011;67962;47.310;9.642;2023-05-01T11:26:54;2.22;;;0.82;;
78648;SDS011;67962;47.310;9.642;2023-05-01T11:29:20;1.30;;;0.70;;
78648;SDS011;67962;47.310;9.642;2023-05-01T11:31:47;0.80;;;0.70;;
78648;SDS011;67962;47.310;9.642;2023-05-01T11:34:13;1.20;;;0.70;;
78648;SDS011;67962;47.310;9.642;2023-05-01T11:36:46;1.10;;;0.90;;
78648;SDS011;67962;47.310;9.642;2023-05-01T11:39:13;1.95;;;0.90;;
78648;SDS011;67962;47.310;9.642;2023-05-01T11:41:41;0.80;;;0.70;;
78648;SDS011;67962;47.310;9.642;2023-05-01T11:44:07;2.13;;;0.85;;
78648;SDS011;67962;47.310;9.642;2023-05-01T11:46:35;1.25;;;0.80;;
78648;SDS011;67962;47.310;9.642;2023-05-01T11:49:01;0.80;;;0.70;;
78648;SDS011;67962;47.310;9.642;2023-05-01T11:51:27;1.80;;;0.70;;
78648;SDS011;67962;47.310;9.642;2023-05-01T11:54:06;0.80;;;0.70;;
78648;SDS011;67962;47.310;9.642;2023-05-01T11:56:34;0.80;;;0.60;;
78648;SDS011;67962;47.310;9.642;2023-05-01T11:59:11;2.15;;;0.75;;
78648;SDS011;67962;47.310;9.642;2023-05-01T12:01:39;0.50;;;0.45;;
78648;SDS011;67962;47.310;9.642;2023-05-01T12:04:08;1.40;;;0.70;;
78648;SDS011;67962;47.310;9.642;2023-05-01T12:06:37;0.52;;;0.50;;
78648;SDS011;67962;47.310;9.642;2023-05-01T12:09:09;0.47;;;0.47;;
78648;SDS011;67962;47.310;9.642;2023-05-01T12:11:37;0.40;;;0.40;;
78648;SDS011;67962;47.310;9.642;2023-05-01T12:14:04;5.85;;;0.60;;
78648;SDS011;67962;47.310;9.642;2023-05-01T12:16:30;2.28;;;0.70;;
78648;SDS011;67962;47.310;9.642;2023-05-01T12:18:56;0.90;;;0.80;;
78648;SDS011;67962;47.310;9.642;2023-05-01T12:21:22;0.70;;;0.60;;
78648;SDS011;67962;47.310;9.642;2023-05-01T12:23:49;0.70;;;0.57;;
78648;SDS011;67962;47.310;9.642;2023-05-01T12:26:19;0.60;;;0.50;;
78648;SDS011;67962;47.310;9.642;2023-05-01T12:28:58;1.00;;;0.60;;
78648;SDS011;67962;47.310;9.642;2023-05-01T12:31:26;1.88;;;0.60;;
78648;SDS011;67962;47.310;9.642;2023-05-01T12:33:56;1.80;;;0.60;;
78648;SDS011;67962;47.310;9.642;2023-05-01T12:36:23;2.10;;;0.63;;
78648;SDS011;67962;47.310;9.642;2023-05-01T12:41:46;0.70;;;0.68;;
78648;SDS011;67962;47.310;9.642;2023-05-01T12:44:14;0.63;;;0.60;;
78648;SDS011;67962;47.310;9.642;2023-05-01T12:46:45;2.33;;;0.65;;
78648;SDS011;67962;47.310;9.642;2023-05-01T12:49:17;0.70;;;0.60;;
78648;SDS011;67962;47.310;9.642;2023-05-01T12:51:54;2.25;;;0.93;;
78648;SDS011;67962;47.310;9.642;2023-05-01T12:54:21;2.55;;;0.70;;
78648;SDS011;67962;47.310;9.642;2023-05-01T12:56:50;0.60;;;0.50;;
78648;SDS011;67962;47.310;9.642;2023-05-01T12:59:23;0.63;;;0.50;;
78648;SDS011;67962;47.310;9.642;2023-05-01T13:04:27;0.60;;;0.50;;
78648;SDS011;67962;47.310;9.642;2023-05-01T13:06:54;0.80;;;0.60;;
78648;SDS011;67962;47.310;9.642;2023-05-01T13:09:23;0.77;;;0.57;;
78648;SDS011;67962;47.310;9.642;2023-05-01T13:14:29;0.65;;;0.57;;
78648;SDS011;67962;47.310;9.642;2023-05-01T13:17:02;1.27;;;0.68;;
78648;SDS011;67962;47.310;9.642;2023-05-01T13:19:28;0.98;;;0.82;;
78648;SDS011;67962;47.310;9.642;2023-05-01T13:21:54;1.45;;;1.00;;
78648;SDS011;67962;47.310;9.642;2023-05-01T13:24:21;1.00;;;0.90;;
78648;SDS011;67962;47.310;9.642;2023-05-01T13:26:54;1.38;;;0.75;;
78648;SDS011;67962;47.310;9.642;2023-05-01T13:29:25;1.55;;;0.90;;
78648;SDS011;67962;47.310;9.642;2023-05-01T13:31:50;3.60;;;0.85;;
78648;SDS011;67962;47.310;9.642;2023-05-01T13:34:20;3.70;;;0.70;;
78648;SDS011;67962;47.310;9.642;2023-05-01T13:36:49;0.90;;;0.68;;
78648;SDS011;67962;47.310;9.642;2023-05-01T13:39:19;1.17;;;0.75;;
78648;SDS011;67962;47.310;9.642;2023-05-01T13:41:45;0.93;;;0.80;;
78648;SDS011;67962;47.310;9.642;2023-05-01T13:44:10;1.55;;;1.10;;
78648;SDS011;67962;47.310;9.642;2023-05-01T13:46:37;1.80;;;1.00;;
78648;SDS011;67962;47.310;9.642;2023-05-01T13:49:06;2.22;;;0.90;;
78648;SDS011;67962;47.310;9.642;2023-05-01T13:51:32;7.43;;;1.58;;
78648;SDS011;67962;47.310;9.642;2023-05-01T13:54:03;1.20;;;0.90;;
78648;SDS011;67962;47.310;9.642;2023-05-01T13:56:31;1.15;;;0.82;;
78648;SDS011;67962;47.310;9.642;2023-05-01T13:58:59;0.93;;;0.88;;
78648;SDS011;67962;47.310;9.642;2023-05-01T14:01:25;1.02;;;0.80;;
78648;SDS011;67962;47.310;9.642;2023-05-01T14:03:52;1.83;;;0.90;;
78648;SDS011;67962;47.310;9.642;2023-05-01T14:06:21;1.83;;;0.93;;
78648;SDS011;67962;47.310;9.642;2023-05-01T14:08:48;2.78;;;0.93;;
78648;SDS011;67962;47.310;9.642;2023-05-01T14:11:16;4.95;;;1.00;;
78648;SDS011;67962;47.310;9.642;2023-05-01T14:13:45;2.75;;;0.90;;
78648;SDS011;67962;47.310;9.642;2023-05-01T14:16:27;1.38;;;0.93;;
78648;SDS011;67962;47.310;9.642;2023-05-01T14:18:55;1.42;;;0.98;;
78648;SDS011;67962;47.310;9.642;2023-05-01T14:21:21;1.75;;;0.98;;
78648;SDS011;67962;47.310;9.642;2023-05-01T14:23:50;1.38;;;0.93;;
78648;SDS011;67962;47.310;9.642;2023-05-01T14:26:17;1.30;;;0.93;;
78648;SDS011;67962;47.310;9.642;2023-05-01T14:28:44;5.50;;;1.00;;
78648;SDS011;67962;47.310;9.642;2023-05-01T14:31:28;1.10;;;0.90;;
78648;SDS011;67962;47.310;9.642;2023-05-01T14:36:22;2.33;;;0.75;;
78648;SDS011;67962;47.310;9.642;2023-05-01T14:38:48;0.90;;;0.80;;
78648;SDS011;67962;47.310;9.642;2023-05-01T14:41:17;1.50;;;0.80;;
78648;SDS011;67962;47.310;9.642;2023-05-01T14:43:43;1.38;;;0.90;;
78648;SDS011;67962;47.310;9.642;2023-05-01T14:46:12;1.17;;;0.70;;
78648;SDS011;67962;47.310;9.642;2023-05-01T14:48:40;2.92;;;1.00;;
78648;SDS011;67962;47.310;9.642;2023-05-01T14:51:09;0.98;;;0.68;;
78648;SDS011;67962;47.310;9.642;2023-05-01T14:53:39;0.95;;;0.82;;
78648;SDS011;67962;47.310;9.642;2023-05-01T14:56:08;0.80;;;0.75;;
78648;SDS011;67962;47.310;9.642;2023-05-01T14:58:34;6.07;;;0.93;;
78648;SDS011;67962;47.310;9.642;2023-05-01T15:01:00;1.65;;;0.95;;
78648;SDS011;67962;47.310;9.642;2023-05-01T15:03:28;0.95;;;0.85;;
78648;SDS011;67962;47.310;9.642;2023-05-01T15:05:54;1.25;;;0.77;;
78648;SDS011;67962;47.310;9.642;2023-05-01T15:08:20;1.67;;;0.98;;
78648;SDS011;67962;47.310;9.642;2023-05-01T15:10:47;2.83;;;0.80;;
78648;SDS011;67962;47.310;9.642;2023-05-01T15:13:13;1.83;;;0.82;;
78648;SDS011;67962;47.310;9.642;2023-05-01T15:15:38;1.05;;;0.85;;
78648;SDS011;67962;47.310;9.642;2023-05-01T15:18:04;9.45;;;0.88;;
78648;SDS011;67962;47.310;9.642;2023-05-01T15:20:30;1.45;;;0.90;;
78648;SDS011;67962;47.310;9.642;2023-05-01T15:22:56;1.10;;;0.80;;
78648;SDS011;67962;47.310;9.642;2023-05-01T15:25:21;1.85;;;0.80;;
78648;SDS011;67962;47.310;9.642;2023-05-01T15:27:47;2.45;;;0.90;;
78648;SDS011;67962;47.310;9.642;2023-05-01T15:30:14;1.42;;;0.90;;
78648;SDS011;67962;47.310;9.642;2023-05-01T15:32:40;2.03;;;1.08;;